sensor_id;sensor_type;location;lat;lon;timestamp;pressure;altitude;pressure_sealevel;temperature;humidity
20628;BME280;10473;42.734;24.258;2023-04-29T00:00:16;91947.09;;;6.38;58.76
20628;BME280;10473;42.734;24.258;2023-04-29T00:02:43;91940.63;;;6.35;59.14
20628;BME280;10473;42.734;24.258;2023-04-29T00:05:11;91950.56;;;6.42;58.61
20628;BME280;10473;42.734;24.258;2023-04-29T00:07:39;91956.09;;;6.37;58.31
20628;BME280;10473;42.734;24.258;2023-04-29T00:10:09;91959.16;;;6.39;59.15
20628;BME280;10473;42.734;24.258;2023-04-29T00:12:40;91951.59;;;6.37;59.13
20628;BME280;10473;42.734;24.258;2023-04-29T00:15:08;91962.53;;;6.39;58.39
20628;BME280;10473;42.734;24.258;2023-04-29T00:17:36;91958.28;;;6.35;58.18
20628;BME280;10473;42.734;24.258;2023-04-29T00:20:05;91962.97;;;6.41;59.27
20628;BME280;10473;42.734;24.258;2023-04-29T00:22:34;91956.78;;;6.34;58.56
20628;BME280;10473;42.734;24.258;2023-04-29T00:25:06;91943.00;;;6.25;59.39
20628;BME280;10473;42.734;24.258;2023-04-29T00:27:35;91946.50;;;6.29;59.46
20628;BME280;10473;42.734;24.258;2023-04-29T00:30:06;91937.22;;;6.19;59.28
20628;BME280;10473;42.734;24.258;2023-04-29T00:32:33;91944.00;;;6.20;59.81
20628;BME280;10473;42.734;24.258;2023-04-29T00:35:03;91940.19;;;6.18;58.99
20628;BME280;10473;42.734;24.258;2023-04-29T00:37:30;91936.03;;;6.17;60.48
20628;BME280;10473;42.734;24.258;2023-04-29T00:39:58;91926.31;;;6.05;59.79
20628;BME280;10473;42.734;24.258;2023-04-29T00:42:26;91937.69;;;6.09;60.51
20628;BME280;10473;42.734;24.258;2023-04-29T00:44:55;91928.38;;;6.12;61.02
20628;BME280;10473;42.734;24.258;2023-04-29T00:47:23;91913.78;;;5.99;59.28
20628;BME280;10473;42.734;24.258;2023-04-29T00:49:51;91925.25;;;6.06;59.76
20628;BME280;10473;42.734;24.258;2023-04-29T00:52:19;91925.25;;;6.06;60.73
20628;BME280;10473;42.734;24.258;2023-04-29T00:54:46;91922.63;;;6.06;59.60
20628;BME280;10473;42.734;24.258;2023-04-29T00:57:14;91923.81;;;6.09;59.88
20628;BME280;10473;42.734;24.258;2023-04-29T00:59:43;91924.38;;;6.02;60.92
20628;BME280;10473;42.734;24.258;2023-04-29T01:02:12;91920.06;;;6.10;60.48
20628;BME280;10473;42.734;24.258;2023-04-29T01:04:40;91916.50;;;6.02;59.99
20628;BME280;10473;42.734;24.258;2023-04-29T01:07:13;91916.81;;;6.01;59.64
20628;BME280;10473;42.734;24.258;2023-04-29T01:09:53;91900.66;;;5.87;59.58
20628;BME280;10473;42.734;24.258;2023-04-29T01:12:27;91918.69;;;6.00;59.35
20628;BME280;10473;42.734;24.258;2023-04-29T01:15:03;91911.81;;;5.96;60.55
20628;BME280;10473;42.734;24.258;2023-04-29T01:17:40;91914.44;;;5.96;60.04
20628;BME280;10473;42.734;24.258;2023-04-29T01:20:11;91909.75;;;5.89;59.99
20628;BME280;10473;42.734;24.258;2023-04-29T01:22:40;91917.06;;;5.96;59.36
20628;BME280;10473;42.734;24.258;2023-04-29T01:25:10;91914.53;;;5.99;59.09
20628;BME280;10473;42.734;24.258;2023-04-29T01:28:11;91902.47;;;5.98;60.29
20628;BME280;10473;42.734;24.258;2023-04-29T01:30:47;91898.28;;;5.82;60.24
20628;BME280;10473;42.734;24.258;2023-04-29T01:33:24;91901.53;;;5.91;60.73
20628;BME280;10473;42.734;24.258;2023-04-29T01:36:07;91901.34;;;5.84;60.55
20628;BME280;10473;42.734;24.258;2023-04-29T01:38:52;91899.16;;;5.86;61.06
20628;BME280;10473;42.734;24.258;2023-04-29T01:41:34;91879.00;;;5.78;60.88
20628;BME280;10473;42.734;24.258;2023-04-29T01:44:15;91905.50;;;5.85;60.61
20628;BME280;10473;42.734;24.258;2023-04-29T01:46:49;91901.00;;;5.85;61.24
20628;BME280;10473;42.734;24.258;2023-04-29T01:49:19;91899.06;;;5.82;60.51
20628;BME280;10473;42.734;24.258;2023-04-29T01:51:47;91890.72;;;5.80;60.44
20628;BME280;10473;42.734;24.258;2023-04-29T01:54:15;91893.56;;;5.75;60.04
20628;BME280;10473;42.734;24.258;2023-04-29T01:56:45;91900.72;;;5.75;59.79
20628;BME280;10473;42.734;24.258;2023-04-29T01:59:30;91896.88;;;5.72;59.28
20628;BME280;10473;42.734;24.258;2023-04-29T02:02:29;91887.28;;;5.64;59.50
20628;BME280;10473;42.734;24.258;2023-04-29T02:05:07;91886.50;;;5.64;59.91
20628;BME280;10473;42.734;24.258;2023-04-29T02:07:40;91900.00;;;5.62;59.63
20628;BME280;10473;42.734;24.258;2023-04-29T02:10:10;91897.69;;;5.61;60.29
20628;BME280;10473;42.734;24.258;2023-04-29T02:12:42;91901.06;;;5.61;59.24
20628;BME280;10473;42.734;24.258;2023-04-29T02:15:10;91895.31;;;5.56;60.21
20628;BME280;10473;42.734;24.258;2023-04-29T02:17:38;91896.81;;;5.57;60.66
20628;BME280;10473;42.734;24.258;2023-04-29T02:20:07;91891.81;;;5.52;60.22
20628;BME280;10473;42.734;24.258;2023-04-29T02:22:35;91888.06;;;5.53;60.24
20628;BME280;10473;42.734;24.258;2023-04-29T02:25:04;91883.84;;;5.48;61.77
20628;BME280;10473;42.734;24.258;2023-04-29T02:27:32;91886.47;;;5.48;61.79
20628;BME280;10473;42.734;24.258;2023-04-29T02:30:01;91888.22;;;5.44;60.57
20628;BME280;10473;42.734;24.258;2023-04-29T02:32:30;91880.88;;;5.50;61.13
20628;BME280;10473;42.734;24.258;2023-04-29T02:34:58;91877.81;;;5.48;61.23
20628;BME280;10473;42.734;24.258;2023-04-29T02:37:27;91884.56;;;5.49;60.98
20628;BME280;10473;42.734;24.258;2023-04-29T02:39:55;91888.06;;;5.53;61.54
20628;BME280;10473;42.734;24.258;2023-04-29T02:42:23;91882.41;;;5.51;61.31
20628;BME280;10473;42.734;24.258;2023-04-29T02:44:50;91885.44;;;5.53;62.33
20628;BME280;10473;42.734;24.258;2023-04-29T02:47:19;91877.06;;;5.47;61.31
20628;BME280;10473;42.734;24.258;2023-04-29T02:49:47;91889.97;;;5.52;61.72
20628;BME280;10473;42.734;24.258;2023-04-29T02:52:15;91882.06;;;5.52;61.14
20628;BME280;10473;42.734;24.258;2023-04-29T02:54:45;91884.78;;;5.56;61.68
20628;BME280;10473;42.734;24.258;2023-04-29T02:57:13;91881.53;;;5.47;62.30
20628;BME280;10473;42.734;24.258;2023-04-29T02:59:40;91892.03;;;5.47;61.24
20628;BME280;10473;42.734;24.258;2023-04-29T03:02:09;91888.13;;;5.41;62.14
20628;BME280;10473;42.734;24.258;2023-04-29T03:04:40;91894.03;;;5.38;61.80
20628;BME280;10473;42.734;24.258;2023-04-29T03:07:07;91896.66;;;5.38;62.92
20628;BME280;10473;42.734;24.258;2023-04-29T03:09:36;91888.78;;;5.38;62.32
20628;BME280;10473;42.734;24.258;2023-04-29T03:12:04;91904.22;;;5.39;63.13
20628;BME280;10473;42.734;24.258;2023-04-29T03:14:32;91894.91;;;5.42;62.15
20628;BME280;10473;42.734;24.258;2023-04-29T03:16:59;91897.75;;;5.37;62.68
20628;BME280;10473;42.734;24.258;2023-04-29T03:19:27;91896.81;;;5.29;62.75
20628;BME280;10473;42.734;24.258;2023-04-29T03:21:57;91915.81;;;5.38;63.29
20628;BME280;10473;42.734;24.258;2023-04-29T03:24:25;91911.53;;;5.46;64.18
20628;BME280;10473;42.734;24.258;2023-04-29T03:26:53;91915.91;;;5.42;64.03
20628;BME280;10473;42.734;24.258;2023-04-29T03:29:21;91920.53;;;5.45;63.66
20628;BME280;10473;42.734;24.258;2023-04-29T03:31:48;91916.69;;;5.42;63.71
20628;BME280;10473;42.734;24.258;2023-04-29T03:34:17;91920.06;;;5.43;63.33
20628;BME280;10473;42.734;24.258;2023-04-29T03:36:51;91927.47;;;5.53;63.59
20628;BME280;10473;42.734;24.258;2023-04-29T03:39:20;91923.09;;;5.57;63.20
20628;BME280;10473;42.734;24.258;2023-04-29T03:41:48;91925.50;;;5.62;63.70
20628;BME280;10473;42.734;24.258;2023-04-29T03:44:16;91918.91;;;5.68;64.71
20628;BME280;10473;42.734;24.258;2023-04-29T03:46:44;91922.63;;;5.67;64.50
20628;BME280;10473;42.734;24.258;2023-04-29T03:49:11;91924.13;;;5.80;65.24
20628;BME280;10473;42.734;24.258;2023-04-29T03:51:39;91926.97;;;5.87;65.20
20628;BME280;10473;42.734;24.258;2023-04-29T03:54:13;91921.94;;;5.82;64.10
20628;BME280;10473;42.734;24.258;2023-04-29T03:56:42;91923.91;;;5.85;64.14
20628;BME280;10473;42.734;24.258;2023-04-29T03:59:12;91921.78;;;5.90;64.20
20628;BME280;10473;42.734;24.258;2023-04-29T04:01:41;91921.38;;;5.88;65.46
20628;BME280;10473;42.734;24.258;2023-04-29T04:04:08;91923.19;;;6.00;65.53
20628;BME280;10473;42.734;24.258;2023-04-29T04:06:39;91925.34;;;6.10;65.08
20628;BME280;10473;42.734;24.258;2023-04-29T04:09:09;91923.31;;;6.19;64.02
20628;BME280;10473;42.734;24.258;2023-04-29T04:11:37;91915.47;;;6.07;64.34
20628;BME280;10473;42.734;24.258;2023-04-29T04:14:08;91926.13;;;6.26;64.36
20628;BME280;10473;42.734;24.258;2023-04-29T04:16:35;91930.03;;;6.32;63.67
20628;BME280;10473;42.734;24.258;2023-04-29T04:19:03;91931.75;;;6.40;63.70
20628;BME280;10473;42.734;24.258;2023-04-29T04:21:35;91928.59;;;6.50;63.55
20628;BME280;10473;42.734;24.258;2023-04-29T04:24:06;91924.94;;;6.54;63.53
20628;BME280;10473;42.734;24.258;2023-04-29T04:26:34;91922.75;;;6.56;63.60
20628;BME280;10473;42.734;24.258;2023-04-29T04:29:10;91934.38;;;6.71;62.54
20628;BME280;10473;42.734;24.258;2023-04-29T04:31:54;91933.88;;;6.81;62.22
20628;BME280;10473;42.734;24.258;2023-04-29T04:34:22;91941.59;;;6.89;62.82
20628;BME280;10473;42.734;24.258;2023-04-29T04:36:53;91943.97;;;6.94;61.94
20628;BME280;10473;42.734;24.258;2023-04-29T04:39:22;91945.59;;;6.99;61.55
20628;BME280;10473;42.734;24.258;2023-04-29T04:41:51;91950.84;;;6.99;61.65
20628;BME280;10473;42.734;24.258;2023-04-29T04:44:21;91921.44;;;6.97;61.36
20628;BME280;10473;42.734;24.258;2023-04-29T04:47:04;91938.41;;;7.15;61.24
20628;BME280;10473;42.734;24.258;2023-04-29T04:49:59;91937.47;;;7.23;61.66
20628;BME280;10473;42.734;24.258;2023-04-29T04:52:27;91930.97;;;7.17;62.24
20628;BME280;10473;42.734;24.258;2023-04-29T04:55:12;91923.38;;;7.15;62.56
20628;BME280;10473;42.734;24.258;2023-04-29T04:57:46;91919.56;;;7.13;63.66
20628;BME280;10473;42.734;24.258;2023-04-29T05:00:16;91913.34;;;7.21;63.72
20628;BME280;10473;42.734;24.258;2023-04-29T05:02:44;91916.44;;;7.42;63.38
20628;BME280;10473;42.734;24.258;2023-04-29T05:05:12;91914.50;;;7.58;63.71
20628;BME280;10473;42.734;24.258;2023-04-29T05:07:41;91906.00;;;7.64;64.24
20628;BME280;10473;42.734;24.258;2023-04-29T05:10:10;91908.81;;;7.94;63.83
20628;BME280;10473;42.734;24.258;2023-04-29T05:12:46;91912.22;;;8.13;60.80
20628;BME280;10473;42.734;24.258;2023-04-29T05:15:16;91903.25;;;8.37;60.41
20628;BME280;10473;42.734;24.258;2023-04-29T05:17:45;91900.28;;;8.61;59.41
20628;BME280;10473;42.734;24.258;2023-04-29T05:20:12;91904.13;;;8.89;59.26
20628;BME280;10473;42.734;24.258;2023-04-29T05:22:40;91868.34;;;8.95;58.62
20628;BME280;10473;42.734;24.258;2023-04-29T05:25:09;91903.38;;;9.41;57.61
20628;BME280;10473;42.734;24.258;2023-04-29T05:27:36;91912.72;;;9.61;56.26
20628;BME280;10473;42.734;24.258;2023-04-29T05:30:08;91909.13;;;9.76;56.67
20628;BME280;10473;42.734;24.258;2023-04-29T05:32:38;91906.19;;;9.84;57.66
20628;BME280;10473;42.734;24.258;2023-04-29T05:35:08;91893.03;;;9.88;56.73
20628;BME280;10473;42.734;24.258;2023-04-29T05:37:36;91897.38;;;10.03;55.86
20628;BME280;10473;42.734;24.258;2023-04-29T05:40:15;91903.59;;;10.17;55.86
20628;BME280;10473;42.734;24.258;2023-04-29T05:42:43;91905.22;;;10.25;56.12
20628;BME280;10473;42.734;24.258;2023-04-29T05:45:11;91900.97;;;10.54;55.68
20628;BME280;10473;42.734;24.258;2023-04-29T05:47:40;91877.44;;;10.45;55.01
20628;BME280;10473;42.734;24.258;2023-04-29T05:50:08;91904.97;;;10.81;54.22
20628;BME280;10473;42.734;24.258;2023-04-29T05:52:36;91913.94;;;11.06;53.57
20628;BME280;10473;42.734;24.258;2023-04-29T05:55:05;91912.84;;;11.14;53.50
20628;BME280;10473;42.734;24.258;2023-04-29T05:57:33;91912.56;;;11.26;53.01
20628;BME280;10473;42.734;24.258;2023-04-29T06:00:02;91905.91;;;11.53;51.84
20628;BME280;10473;42.734;24.258;2023-04-29T06:02:41;91900.34;;;11.68;52.00
20628;BME280;10473;42.734;24.258;2023-04-29T06:05:13;91909.91;;;11.80;52.33
20628;BME280;10473;42.734;24.258;2023-04-29T06:08:05;91907.34;;;12.08;51.69
20628;BME280;10473;42.734;24.258;2023-04-29T06:10:44;91907.78;;;12.20;50.76
20628;BME280;10473;42.734;24.258;2023-04-29T06:13:12;91912.06;;;12.46;49.93
20628;BME280;10473;42.734;24.258;2023-04-29T06:15:40;91912.84;;;12.57;48.64
20628;BME280;10473;42.734;24.258;2023-04-29T06:18:09;91906.81;;;12.95;48.52
20628;BME280;10473;42.734;24.258;2023-04-29T06:20:37;91907.59;;;13.09;47.51
20628;BME280;10473;42.734;24.258;2023-04-29T06:23:04;91916.72;;;13.29;47.02
20628;BME280;10473;42.734;24.258;2023-04-29T06:25:32;91908.75;;;13.36;46.14
20628;BME280;10473;42.734;24.258;2023-04-29T06:28:03;91911.78;;;13.49;47.65
20628;BME280;10473;42.734;24.258;2023-04-29T06:30:34;91901.84;;;13.81;46.03
20628;BME280;10473;42.734;24.258;2023-04-29T06:33:02;91887.69;;;14.05;45.28
20628;BME280;10473;42.734;24.258;2023-04-29T06:35:31;91891.44;;;14.25;43.57
20628;BME280;10473;42.734;24.258;2023-04-29T06:38:13;91895.84;;;14.63;44.52
20628;BME280;10473;42.734;24.258;2023-04-29T06:41:04;91901.09;;;14.77;43.21
20628;BME280;10473;42.734;24.258;2023-04-29T06:43:54;91894.91;;;14.90;43.58
20628;BME280;10473;42.734;24.258;2023-04-29T06:46:38;91902.53;;;14.92;42.95
20628;BME280;10473;42.734;24.258;2023-04-29T06:49:09;91894.16;;;14.90;42.39
20628;BME280;10473;42.734;24.258;2023-04-29T06:51:39;91890.53;;;15.14;41.55
20628;BME280;10473;42.734;24.258;2023-04-29T06:54:08;91895.72;;;14.84;41.27
20628;BME280;10473;42.734;24.258;2023-04-29T06:56:35;91888.75;;;15.00;42.49
20628;BME280;10473;42.734;24.258;2023-04-29T06:59:03;91880.34;;;15.02;42.63
20628;BME280;10473;42.734;24.258;2023-04-29T07:01:31;91876.47;;;15.13;42.78
20628;BME280;10473;42.734;24.258;2023-04-29T07:03:59;91881.94;;;14.96;41.84
20628;BME280;10473;42.734;24.258;2023-04-29T07:06:27;91875.06;;;14.98;43.20
20628;BME280;10473;42.734;24.258;2023-04-29T07:08:56;91881.41;;;15.11;42.82
20628;BME280;10473;42.734;24.258;2023-04-29T07:11:26;91880.84;;;14.90;42.63
20628;BME280;10473;42.734;24.258;2023-04-29T07:13:54;91881.41;;;14.57;42.79
20628;BME280;10473;42.734;24.258;2023-04-29T07:16:21;91877.88;;;14.74;43.64
20628;BME280;10473;42.734;24.258;2023-04-29T07:18:51;91879.41;;;14.75;43.76
20628;BME280;10473;42.734;24.258;2023-04-29T07:21:19;91873.69;;;14.73;42.98
20628;BME280;10473;42.734;24.258;2023-04-29T07:23:47;91872.00;;;14.96;42.92
20628;BME280;10473;42.734;24.258;2023-04-29T07:26:16;91875.47;;;14.93;43.68
20628;BME280;10473;42.734;24.258;2023-04-29T07:28:46;91878.00;;;15.11;42.31
20628;BME280;10473;42.734;24.258;2023-04-29T07:31:14;91878.03;;;15.04;43.07
20628;BME280;10473;42.734;24.258;2023-04-29T07:33:43;91874.84;;;15.23;42.51
20628;BME280;10473;42.734;24.258;2023-04-29T07:36:12;91877.47;;;15.33;43.03
20628;BME280;10473;42.734;24.258;2023-04-29T07:38:40;91883.16;;;15.39;41.77
20628;BME280;10473;42.734;24.258;2023-04-29T07:41:08;91862.41;;;15.53;40.57
20628;BME280;10473;42.734;24.258;2023-04-29T07:43:37;91874.91;;;15.63;41.89
20628;BME280;10473;42.734;24.258;2023-04-29T07:46:05;91876.81;;;15.66;41.73
20628;BME280;10473;42.734;24.258;2023-04-29T07:48:36;91875.84;;;15.83;41.52
20628;BME280;10473;42.734;24.258;2023-04-29T07:51:05;91877.19;;;16.02;41.33
20628;BME280;10473;42.734;24.258;2023-04-29T07:53:35;91874.72;;;16.18;40.33
20628;BME280;10473;42.734;24.258;2023-04-29T07:56:04;91877.69;;;16.23;39.34
20628;BME280;10473;42.734;24.258;2023-04-29T07:58:33;91878.53;;;16.17;39.40
20628;BME280;10473;42.734;24.258;2023-04-29T08:01:06;91858.75;;;16.11;38.54
20628;BME280;10473;42.734;24.258;2023-04-29T08:03:33;91861.47;;;16.07;36.68
20628;BME280;10473;42.734;24.258;2023-04-29T08:06:02;91853.66;;;15.90;36.88
20628;BME280;10473;42.734;24.258;2023-04-29T08:08:30;91863.88;;;16.28;37.00
20628;BME280;10473;42.734;24.258;2023-04-29T08:10:58;91868.06;;;16.33;34.42
20628;BME280;10473;42.734;24.258;2023-04-29T08:13:36;91865.06;;;16.27;32.50
20628;BME280;10473;42.734;24.258;2023-04-29T08:16:05;91855.88;;;16.28;35.14
20628;BME280;10473;42.734;24.258;2023-04-29T08:18:35;91871.25;;;16.81;37.08
20628;BME280;10473;42.734;24.258;2023-04-29T08:21:03;91867.53;;;17.01;36.16
20628;BME280;10473;42.734;24.258;2023-04-29T08:23:30;91873.38;;;17.19;35.92
20628;BME280;10473;42.734;24.258;2023-04-29T08:25:59;91866.78;;;17.50;36.80
20628;BME280;10473;42.734;24.258;2023-04-29T08:28:28;91855.34;;;17.69;35.94
20628;BME280;10473;42.734;24.258;2023-04-29T08:30:56;91850.19;;;17.32;36.79
20628;BME280;10473;42.734;24.258;2023-04-29T08:33:25;91851.00;;;17.56;37.94
20628;BME280;10473;42.734;24.258;2023-04-29T08:35:57;91856.06;;;17.73;37.15
20628;BME280;10473;42.734;24.258;2023-04-29T08:38:26;91851.91;;;17.69;36.59
20628;BME280;10473;42.734;24.258;2023-04-29T08:40:53;91848.91;;;17.67;36.08
20628;BME280;10473;42.734;24.258;2023-04-29T08:43:22;91856.56;;;17.88;35.21
20628;BME280;10473;42.734;24.258;2023-04-29T08:45:49;91853.28;;;18.00;35.64
20628;BME280;10473;42.734;24.258;2023-04-29T08:48:17;91850.88;;;18.25;35.79
20628;BME280;10473;42.734;24.258;2023-04-29T08:50:46;91859.25;;;18.27;34.45
20628;BME280;10473;42.734;24.258;2023-04-29T08:53:14;91859.06;;;18.57;34.24
20628;BME280;10473;42.734;24.258;2023-04-29T08:55:43;91860.63;;;18.74;33.97
20628;BME280;10473;42.734;24.258;2023-04-29T08:58:11;91842.75;;;18.28;34.14
20628;BME280;10473;42.734;24.258;2023-04-29T09:00:41;91836.03;;;18.01;33.51
20628;BME280;10473;42.734;24.258;2023-04-29T09:03:17;91848.69;;;18.20;35.27
20628;BME280;10473;42.734;24.258;2023-04-29T09:05:52;91819.66;;;18.34;33.96
20628;BME280;10473;42.734;24.258;2023-04-29T09:08:22;91835.94;;;18.63;34.87
20628;BME280;10473;42.734;24.258;2023-04-29T09:10:50;91827.88;;;18.63;31.83
20628;BME280;10473;42.734;24.258;2023-04-29T09:13:22;91827.81;;;18.66;30.91
20628;BME280;10473;42.734;24.258;2023-04-29T09:15:51;91832.94;;;18.77;30.87
20628;BME280;10473;42.734;24.258;2023-04-29T09:18:52;91829.31;;;18.67;30.89
20628;BME280;10473;42.734;24.258;2023-04-29T09:21:22;91822.22;;;18.93;31.25
20628;BME280;10473;42.734;24.258;2023-04-29T09:23:52;91818.22;;;19.01;30.61
20628;BME280;10473;42.734;24.258;2023-04-29T09:26:20;91817.69;;;19.25;29.37
20628;BME280;10473;42.734;24.258;2023-04-29T09:29:05;91797.22;;;18.96;29.54
20628;BME280;10473;42.734;24.258;2023-04-29T09:31:36;91809.81;;;19.15;28.66
20628;BME280;10473;42.734;24.258;2023-04-29T09:34:04;91796.31;;;19.02;29.26
20628;BME280;10473;42.734;24.258;2023-04-29T09:36:41;91791.19;;;18.92;29.83
20628;BME280;10473;42.734;24.258;2023-04-29T09:39:13;91772.56;;;19.01;31.57
20628;BME280;10473;42.734;24.258;2023-04-29T09:41:56;91799.59;;;19.26;29.60
20628;BME280;10473;42.734;24.258;2023-04-29T09:44:26;91789.34;;;19.37;30.78
20628;BME280;10473;42.734;24.258;2023-04-29T09:46:56;91788.34;;;19.15;29.26
20628;BME280;10473;42.734;24.258;2023-04-29T09:49:26;91768.84;;;19.11;30.80
20628;BME280;10473;42.734;24.258;2023-04-29T09:51:57;91776.31;;;18.71;31.14
20628;BME280;10473;42.734;24.258;2023-04-29T09:54:26;91786.13;;;18.78;31.55
20628;BME280;10473;42.734;24.258;2023-04-29T09:56:56;91762.06;;;18.74;30.32
20628;BME280;10473;42.734;24.258;2023-04-29T09:59:24;91776.50;;;18.96;30.89
20628;BME280;10473;42.734;24.258;2023-04-29T10:01:53;91781.69;;;19.03;32.43
20628;BME280;10473;42.734;24.258;2023-04-29T10:04:22;91771.22;;;19.25;29.71
20628;BME280;10473;42.734;24.258;2023-04-29T10:06:51;91770.88;;;19.39;30.62
20628;BME280;10473;42.734;24.258;2023-04-29T10:09:21;91770.53;;;19.37;30.53
20628;BME280;10473;42.734;24.258;2023-04-29T10:11:51;91765.16;;;19.53;30.61
20628;BME280;10473;42.734;24.258;2023-04-29T10:14:21;91766.66;;;19.54;29.39
20628;BME280;10473;42.734;24.258;2023-04-29T10:16:56;91749.53;;;19.48;30.18
20628;BME280;10473;42.734;24.258;2023-04-29T10:19:30;91755.81;;;19.57;28.81
20628;BME280;10473;42.734;24.258;2023-04-29T10:22:07;91757.03;;;19.40;29.36
20628;BME280;10473;42.734;24.258;2023-04-29T10:24:38;91728.56;;;19.43;30.05
20628;BME280;10473;42.734;24.258;2023-04-29T10:27:07;91743.19;;;19.70;30.96
20628;BME280;10473;42.734;24.258;2023-04-29T10:29:38;91742.66;;;19.75;30.34
20628;BME280;10473;42.734;24.258;2023-04-29T10:32:08;91741.09;;;19.90;29.58
20628;BME280;10473;42.734;24.258;2023-04-29T10:34:38;91738.63;;;19.96;29.77
20628;BME280;10473;42.734;24.258;2023-04-29T10:37:07;91726.69;;;19.84;29.18
20628;BME280;10473;42.734;24.258;2023-04-29T10:39:45;91728.84;;;19.89;30.42
20628;BME280;10473;42.734;24.258;2023-04-29T10:42:20;91724.53;;;19.92;29.52
20628;BME280;10473;42.734;24.258;2023-04-29T10:45:17;91730.47;;;19.99;28.98
20628;BME280;10473;42.734;24.258;2023-04-29T10:48:14;91720.19;;;19.82;30.21
20628;BME280;10473;42.734;24.258;2023-04-29T10:51:00;91723.69;;;19.66;29.44
20628;BME280;10473;42.734;24.258;2023-04-29T10:53:28;91730.31;;;19.78;30.62
20628;BME280;10473;42.734;24.258;2023-04-29T10:56:02;91711.81;;;19.80;29.96
20628;BME280;10473;42.734;24.258;2023-04-29T10:58:42;91714.69;;;19.73;29.22
20628;BME280;10473;42.734;24.258;2023-04-29T11:01:13;91701.84;;;19.36;30.18
20628;BME280;10473;42.734;24.258;2023-04-29T11:03:49;91716.94;;;19.46;30.70
20628;BME280;10473;42.734;24.258;2023-04-29T11:06:22;91714.41;;;19.55;29.74
20628;BME280;10473;42.734;24.258;2023-04-29T11:08:59;91709.63;;;19.75;30.25
20628;BME280;10473;42.734;24.258;2023-04-29T11:11:43;91711.81;;;19.80;30.24
20628;BME280;10473;42.734;24.258;2023-04-29T11:14:12;91709.38;;;19.69;30.04
20628;BME280;10473;42.734;24.258;2023-04-29T11:16:46;91711.47;;;19.78;28.77
20628;BME280;10473;42.734;24.258;2023-04-29T11:19:15;91708.88;;;19.74;29.29
20628;BME280;10473;42.734;24.258;2023-04-29T11:21:46;91708.28;;;19.83;29.29
20628;BME280;10473;42.734;24.258;2023-04-29T11:24:14;91704.56;;;19.77;29.65
20628;BME280;10473;42.734;24.258;2023-04-29T11:26:44;91701.13;;;19.64;28.82
20628;BME280;10473;42.734;24.258;2023-04-29T11:29:11;91705.16;;;19.56;29.31
20628;BME280;10473;42.734;24.258;2023-04-29T11:31:39;91698.69;;;19.53;29.47
20628;BME280;10473;42.734;24.258;2023-04-29T11:34:07;91689.03;;;19.56;29.05
20628;BME280;10473;42.734;24.258;2023-04-29T11:37:00;91695.44;;;19.46;29.87
20628;BME280;10473;42.734;24.258;2023-04-29T11:39:27;91691.78;;;19.40;28.88
20628;BME280;10473;42.734;24.258;2023-04-29T11:42:03;91677.44;;;19.30;29.83
20628;BME280;10473;42.734;24.258;2023-04-29T11:44:33;91689.59;;;19.35;30.44
20628;BME280;10473;42.734;24.258;2023-04-29T11:47:01;91688.88;;;19.47;29.28
20628;BME280;10473;42.734;24.258;2023-04-29T11:49:33;91684.31;;;19.60;29.75
20628;BME280;10473;42.734;24.258;2023-04-29T11:52:03;91690.53;;;19.57;30.07
20628;BME280;10473;42.734;24.258;2023-04-29T11:54:31;91614.88;;;19.01;30.00
20628;BME280;10473;42.734;24.258;2023-04-29T11:56:58;91665.91;;;19.58;31.31
20628;BME280;10473;42.734;24.258;2023-04-29T11:59:31;91683.59;;;19.72;29.29
20628;BME280;10473;42.734;24.258;2023-04-29T12:01:59;91665.63;;;19.69;29.31
20628;BME280;10473;42.734;24.258;2023-04-29T12:04:27;91594.06;;;19.18;28.42
20628;BME280;10473;42.734;24.258;2023-04-29T12:06:56;91667.53;;;19.56;28.83
20628;BME280;10473;42.734;24.258;2023-04-29T12:09:25;91659.03;;;19.57;29.49
20628;BME280;10473;42.734;24.258;2023-04-29T12:11:53;91658.41;;;19.66;30.02
20628;BME280;10473;42.734;24.258;2023-04-29T12:14:20;91661.09;;;19.66;30.45
20628;BME280;10473;42.734;24.258;2023-04-29T12:16:49;91659.00;;;19.86;29.85
20628;BME280;10473;42.734;24.258;2023-04-29T12:19:19;91663.72;;;19.82;28.32
20628;BME280;10473;42.734;24.258;2023-04-29T12:21:47;91664.06;;;19.96;27.99
20628;BME280;10473;42.734;24.258;2023-04-29T12:24:19;91658.28;;;19.98;24.65
20628;BME280;10473;42.734;24.258;2023-04-29T12:26:48;91649.97;;;20.05;23.31
20628;BME280;10473;42.734;24.258;2023-04-29T12:29:19;91656.59;;;20.29;23.91
20628;BME280;10473;42.734;24.258;2023-04-29T12:31:49;91652.94;;;20.35;22.58
20628;BME280;10473;42.734;24.258;2023-04-29T12:34:29;91649.41;;;20.51;23.29
20628;BME280;10473;42.734;24.258;2023-04-29T12:37:00;91657.97;;;20.71;22.84
20628;BME280;10473;42.734;24.258;2023-04-29T12:39:29;91641.47;;;20.81;23.65
20628;BME280;10473;42.734;24.258;2023-04-29T12:41:58;91626.81;;;20.82;23.57
20628;BME280;10473;42.734;24.258;2023-04-29T12:44:34;91639.84;;;20.96;24.26
20628;BME280;10473;42.734;24.258;2023-04-29T12:47:07;91612.50;;;20.73;24.49
20628;BME280;10473;42.734;24.258;2023-04-29T12:49:36;91643.94;;;21.01;25.05
20628;BME280;10473;42.734;24.258;2023-04-29T12:52:03;91642.94;;;21.07;25.21
20628;BME280;10473;42.734;24.258;2023-04-29T12:54:34;91627.13;;;20.97;25.82
20628;BME280;10473;42.734;24.258;2023-04-29T12:57:03;91644.47;;;21.08;25.35
20628;BME280;10473;42.734;24.258;2023-04-29T12:59:30;91630.13;;;20.99;25.97
20628;BME280;10473;42.734;24.258;2023-04-29T13:01:58;91636.81;;;21.07;23.96
20628;BME280;10473;42.734;24.258;2023-04-29T13:04:27;91618.72;;;20.95;24.51
20628;BME280;10473;42.734;24.258;2023-04-29T13:06:55;91621.41;;;20.95;25.65
20628;BME280;10473;42.734;24.258;2023-04-29T13:09:25;91637.56;;;20.95;25.13
20628;BME280;10473;42.734;24.258;2023-04-29T13:11:53;91638.47;;;20.79;26.12
20628;BME280;10473;42.734;24.258;2023-04-29T13:14:21;91638.41;;;20.33;26.72